createdAt,value
2023-04-19T00:00:45.655Z,39.48
2023-04-19T00:03:14.821Z,38.83
2023-04-19T00:05:42.665Z,39.10
2023-04-19T00:08:09.879Z,39.80
2023-04-19T00:10:37.683Z,39.44
2023-04-19T00:13:04.930Z,39.58
2023-04-19T00:15:32.101Z,39.37
2023-04-19T00:17:59.298Z,39.17
2023-04-19T00:20:26.513Z,39.28
2023-04-19T00:22:53.744Z,39.68
2023-04-19T00:25:20.883Z,39.72
2023-04-19T00:27:48.018Z,39.39
2023-04-19T00:30:15.172Z,39.44
2023-04-19T00:32:42.394Z,39.63
2023-04-19T00:35:09.802Z,39.70
2023-04-19T00:37:36.975Z,39.77
2023-04-19T00:40:06.036Z,39.63
2023-04-19T00:42:33.312Z,39.83
2023-04-19T00:45:00.514Z,39.26
2023-04-19T00:47:27.793Z,40.34
2023-04-19T00:49:55.747Z,40.29
2023-04-19T00:52:23.620Z,40.26
2023-04-19T00:54:50.890Z,39.40
2023-04-19T00:57:18.821Z,39.37
2023-04-19T00:59:46.426Z,39.08
2023-04-19T01:02:13.669Z,39.52
2023-04-19T01:04:40.973Z,39.13
2023-04-19T01:07:09.296Z,39.21
2023-04-19T01:09:40.912Z,38.87
2023-04-19T01:12:08.168Z,38.32
2023-04-19T01:14:35.447Z,39.27
2023-04-19T01:17:02.593Z,39.17
2023-04-19T01:19:29.783Z,38.42
2023-04-19T01:21:58.424Z,38.13
2023-04-19T01:24:26.403Z,38.52
2023-04-19T01:26:53.576Z,39.05
2023-04-19T01:29:22.252Z,38.96
2023-04-19T01:31:53.832Z,38.52
2023-04-19T01:34:23.250Z,38.46
2023-04-19T01:36:50.648Z,38.50
2023-04-19T01:39:17.934Z,38.80
2023-04-19T01:41:45.531Z,38.88
2023-04-19T01:44:12.918Z,39.90
2023-04-19T01:46:42.854Z,40.03
2023-04-19T01:49:10.539Z,40.10
2023-04-19T01:51:39.148Z,39.84
2023-04-19T01:54:06.417Z,39.43
2023-04-19T01:56:33.625Z,40.50
2023-04-19T01:59:02.109Z,40.19
2023-04-19T02:01:31.488Z,40.20
2023-04-19T02:03:59.475Z,40.49
2023-04-19T02:06:27.114Z,40.16
2023-04-19T02:08:54.277Z,39.67
2023-04-19T02:11:21.532Z,40.62
2023-04-19T02:13:48.783Z,40.87
2023-04-19T02:16:16.161Z,41.24
2023-04-19T02:18:43.206Z,41.02
2023-04-19T02:21:11.249Z,40.88
2023-04-19T02:23:38.531Z,40.43
2023-04-19T02:26:05.863Z,40.76
2023-04-19T02:28:33.235Z,41.41
2023-04-19T02:31:05.863Z,41.80
2023-04-19T02:33:35.944Z,41.12
2023-04-19T02:36:03.189Z,41.31
2023-04-19T02:38:30.392Z,40.73
2023-04-19T02:40:57.541Z,41.41
2023-04-19T02:43:25.143Z,40.77
2023-04-19T02:45:52.351Z,41.71
2023-04-19T02:48:21.644Z,41.30
2023-04-19T02:50:48.863Z,41.26
2023-04-19T02:53:16.078Z,41.39
2023-04-19T02:55:43.402Z,40.91
2023-04-19T02:58:16.026Z,40.67
2023-04-19T03:00:58.717Z,41.14
2023-04-19T03:03:26.071Z,40.48
2023-04-19T03:05:53.546Z,40.03
2023-04-19T03:08:20.765Z,40.91
2023-04-19T03:10:47.946Z,41.21
2023-04-19T03:13:15.120Z,40.04
2023-04-19T03:15:42.845Z,40.69
2023-04-19T03:18:11.391Z,39.88
2023-04-19T03:20:41.438Z,40.86
2023-04-19T03:23:08.763Z,41.40
2023-04-19T03:25:35.958Z,40.90
2023-04-19T03:28:16.613Z,40.67
2023-04-19T03:31:09.929Z,40.82
2023-04-19T03:33:37.545Z,40.89
2023-04-19T03:36:05.353Z,40.29
2023-04-19T03:38:33.104Z,40.43
2023-04-19T03:41:01.223Z,40.37
2023-04-19T03:43:32.970Z,40.96
2023-04-19T03:46:00.174Z,41.46
2023-04-19T03:48:28.106Z,40.70
2023-04-19T03:50:56.449Z,40.66
2023-04-19T03:53:23.888Z,40.59
2023-04-19T03:55:51.030Z,40.56
2023-04-19T03:58:18.314Z,40.33
2023-04-19T04:00:53.721Z,40.72
2023-04-19T04:03:21.125Z,39.95
2023-04-19T04:05:48.735Z,39.77
2023-04-19T04:08:16.117Z,40.40
2023-04-19T04:10:43.345Z,40.31
2023-04-19T04:13:10.876Z,39.43
2023-04-19T04:15:45.708Z,38.91
2023-04-19T04:18:14.362Z,39.70
2023-04-19T04:20:43.969Z,39.40
2023-04-19T04:23:12.328Z,40.03
2023-04-19T04:25:44.580Z,38.90
2023-04-19T04:28:14.087Z,39.84
2023-04-19T04:30:42.013Z,39.50
2023-04-19T04:33:12.100Z,40.45
2023-04-19T04:35:42.129Z,40.01
2023-04-19T04:38:24.107Z,39.38
2023-04-19T04:40:54.104Z,39.24
2023-04-19T04:43:22.932Z,38.64
2023-04-19T04:45:51.461Z,39.32
2023-04-19T04:48:19.496Z,38.26
2023-04-19T04:50:46.768Z,38.55
2023-04-19T04:53:14.088Z,38.45
2023-04-19T04:55:43.868Z,38.50
2023-04-19T04:58:12.989Z,38.97
2023-04-19T05:00:58.268Z,37.87
2023-04-19T05:03:28.052Z,37.49
2023-04-19T05:05:59.006Z,37.88
2023-04-19T05:08:27.186Z,37.52
2023-04-19T05:10:59.738Z,37.17
2023-04-19T05:13:30.950Z,36.08
2023-04-19T05:15:59.658Z,36.60
2023-04-19T05:18:27.354Z,36.61
2023-04-19T05:20:55.384Z,36.56
2023-04-19T05:23:26.562Z,36.72
2023-04-19T05:25:54.764Z,36.59
2023-04-19T05:28:25.071Z,36.38
2023-04-19T05:31:07.239Z,36.44
2023-04-19T05:33:40.768Z,36.25
2023-04-19T05:36:08.367Z,36.98
2023-04-19T05:38:35.871Z,37.28
2023-04-19T05:41:04.291Z,37.95
2023-04-19T05:43:31.690Z,37.88
2023-04-19T05:45:59.059Z,37.67
2023-04-19T05:48:26.201Z,37.46
2023-04-19T05:51:02.951Z,37.64
2023-04-19T05:53:57.377Z,37.76
2023-04-19T05:56:25.797Z,38.07
2023-04-19T05:58:53.080Z,37.58
2023-04-19T06:01:20.227Z,37.02
2023-04-19T06:03:48.038Z,37.38
2023-04-19T06:06:15.418Z,36.18
2023-04-19T06:08:42.670Z,37.42
2023-04-19T06:11:20.149Z,36.59
2023-04-19T06:13:54.065Z,36.68
2023-04-19T06:16:21.454Z,35.99
2023-04-19T06:18:48.641Z,35.42
2023-04-19T06:21:16.102Z,36.75
2023-04-19T06:23:43.289Z,35.84
2023-04-19T06:26:10.700Z,35.87
2023-04-19T06:28:37.813Z,34.51
2023-04-19T06:31:05.124Z,34.06
2023-04-19T06:33:32.374Z,34.13
2023-04-19T06:35:59.626Z,34.28
2023-04-19T06:38:26.870Z,34.28
2023-04-19T06:40:54.041Z,33.39
2023-04-19T06:43:21.579Z,32.91
2023-04-19T06:45:48.840Z,32.80
2023-04-19T06:48:16.050Z,33.02
2023-04-19T06:50:43.266Z,32.47
2023-04-19T06:53:10.975Z,32.72
2023-04-19T06:55:38.900Z,32.54
2023-04-19T06:58:10.613Z,33.02
2023-04-19T07:00:37.912Z,32.66
2023-04-19T07:03:05.373Z,32.47
2023-04-19T07:05:32.798Z,31.59
2023-04-19T07:08:02.651Z,30.98
2023-04-19T07:10:29.804Z,30.32
2023-04-19T07:12:56.986Z,30.57
2023-04-19T07:15:24.213Z,31.31
2023-04-19T07:17:51.383Z,29.45
2023-04-19T07:20:18.814Z,30.01
2023-04-19T07:22:46.101Z,30.35
2023-04-19T07:25:14.138Z,29.93
2023-04-19T07:27:41.528Z,30.36
2023-04-19T07:30:09.070Z,30.40
2023-04-19T07:32:36.491Z,29.72
2023-04-19T07:35:04.532Z,29.37
2023-04-19T07:37:31.783Z,30.12
2023-04-19T07:39:58.940Z,29.81
2023-04-19T07:42:26.194Z,29.92
2023-04-19T07:44:53.346Z,29.20
2023-04-19T07:47:20.557Z,28.79
2023-04-19T07:49:47.854Z,28.73
2023-04-19T07:52:15.085Z,28.02
2023-04-19T07:54:42.273Z,27.12
2023-04-19T07:57:09.720Z,28.19
2023-04-19T07:59:36.983Z,27.69
2023-04-19T08:02:04.177Z,27.06
2023-04-19T08:04:31.718Z,26.93
2023-04-19T08:06:59.540Z,27.37
2023-04-19T08:09:26.927Z,27.02
2023-04-19T08:11:54.060Z,27.53
2023-04-19T08:14:34.770Z,27.29
2023-04-19T08:19:35.433Z,27.46
2023-04-19T08:22:04.626Z,28.07
2023-04-19T08:24:31.882Z,28.58
2023-04-19T08:27:00.135Z,28.19
2023-04-19T08:29:27.632Z,27.94
2023-04-19T08:31:54.839Z,26.78
2023-04-19T08:34:22.091Z,26.83
2023-04-19T08:37:00.057Z,26.85
2023-04-19T08:39:34.673Z,27.23
2023-04-19T08:42:13.436Z,26.92
2023-04-19T08:45:23.406Z,26.93
2023-04-19T08:47:58.928Z,26.52
2023-04-19T08:50:34.446Z,26.04
2023-04-19T08:55:34.501Z,27.62
2023-04-19T08:58:05.709Z,27.38
2023-04-19T09:00:38.074Z,27.64
2023-04-19T09:03:07.821Z,27.28
2023-04-19T09:05:35.456Z,27.34
2023-04-19T09:08:23.361Z,27.46
2023-04-19T09:11:01.612Z,26.57
2023-04-19T09:13:30.051Z,26.27
2023-04-19T09:15:57.459Z,26.59
2023-04-19T09:18:25.242Z,26.88
2023-04-19T09:20:59.093Z,27.17
2023-04-19T09:23:31.262Z,27.23
2023-04-19T09:28:34.844Z,27.25
2023-04-19T09:31:33.225Z,27.04
2023-04-19T09:34:17.223Z,26.87
2023-04-19T09:36:44.755Z,27.53
2023-04-19T09:39:12.248Z,27.30
2023-04-19T09:41:53.645Z,28.24
2023-04-19T09:46:53.756Z,27.81
2023-04-19T09:49:41.742Z,27.43
2023-04-19T09:52:15.151Z,28.10
2023-04-19T09:54:43.188Z,27.94
2023-04-19T09:57:10.856Z,28.27
2023-04-19T09:59:38.010Z,28.13
2023-04-19T10:02:06.760Z,28.27
2023-04-19T10:04:56.957Z,28.35
2023-04-19T10:07:30.823Z,28.22
2023-04-19T10:10:11.781Z,28.23
2023-04-19T10:15:23.938Z,28.15
2023-04-19T10:17:51.685Z,28.19
2023-04-19T10:20:53.851Z,28.58
2023-04-19T10:23:22.662Z,28.54
2023-04-19T10:25:55.521Z,29.20
2023-04-19T10:28:22.721Z,28.72
2023-04-19T10:31:04.241Z,28.03
2023-04-19T10:33:36.036Z,28.42
2023-04-19T10:36:04.321Z,28.10
2023-04-19T10:38:38.752Z,28.61
2023-04-19T10:41:14.495Z,28.03
2023-04-19T10:43:55.602Z,28.43
2023-04-19T10:46:23.252Z,27.96
2023-04-19T10:48:58.679Z,28.14
2023-04-19T10:51:42.385Z,27.75
2023-04-19T10:54:29.521Z,27.62
2023-04-19T10:57:00.622Z,27.24
2023-04-19T10:59:30.470Z,27.75
2023-04-19T11:02:01.301Z,27.72
2023-04-19T11:04:31.366Z,27.33
2023-04-19T11:07:07.392Z,27.36
2023-04-19T11:09:46.213Z,27.98
2023-04-19T11:12:18.526Z,27.27
2023-04-19T11:14:47.730Z,27.42
2023-04-19T11:17:27.760Z,26.84
2023-04-19T11:20:03.690Z,26.51
2023-04-19T11:22:34.269Z,26.53
2023-04-19T11:25:14.038Z,26.64
2023-04-19T11:27:43.232Z,26.74
2023-04-19T11:30:14.880Z,26.93
2023-04-19T11:32:55.248Z,27.44
2023-04-19T11:35:24.756Z,26.85
2023-04-19T11:37:53.032Z,26.60
2023-04-19T11:40:21.787Z,26.27
2023-04-19T11:42:54.999Z,26.31
2023-04-19T11:45:40.479Z,26.29
2023-04-19T11:48:15.698Z,26.46
2023-04-19T11:50:44.995Z,25.80
2023-04-19T11:53:17.708Z,26.25
2023-04-19T11:56:08.970Z,26.18
2023-04-19T11:58:40.102Z,25.83
2023-04-19T12:01:19.536Z,26.80
2023-04-19T12:03:52.269Z,26.63
2023-04-19T12:06:30.875Z,26.12
2023-04-19T12:08:58.716Z,26.38
2023-04-19T12:11:43.039Z,26.31
2023-04-19T12:14:15.243Z,25.81
2023-04-19T12:16:45.153Z,26.27
2023-04-19T12:19:14.986Z,26.42
2023-04-19T12:21:42.249Z,26.53
2023-04-19T12:24:09.667Z,26.25
2023-04-19T12:26:36.975Z,26.22
2023-04-19T12:29:04.234Z,25.86
2023-04-19T12:31:34.805Z,25.79
2023-04-19T12:34:01.812Z,25.73
2023-04-19T12:36:30.495Z,25.56
2023-04-19T12:38:57.588Z,25.85
2023-04-19T12:41:24.670Z,25.79
2023-04-19T12:43:51.721Z,25.67
2023-04-19T12:46:18.801Z,25.60
2023-04-19T12:48:47.462Z,25.28
2023-04-19T12:51:14.572Z,25.11
2023-04-19T12:53:49.559Z,25.49
2023-04-19T12:56:17.926Z,25.24
2023-04-19T12:58:45.048Z,25.23
2023-04-19T13:01:12.216Z,25.23
2023-04-19T13:03:41.109Z,25.31
2023-04-19T13:06:08.303Z,25.70
2023-04-19T13:08:44.893Z,25.40
2023-04-19T13:11:14.290Z,25.50
2023-04-19T13:13:41.589Z,25.38
2023-04-19T13:16:08.992Z,24.95
2023-04-19T13:18:36.168Z,25.26
2023-04-19T13:21:03.381Z,25.44
2023-04-19T13:23:30.530Z,25.64
2023-04-19T13:25:57.593Z,25.11
2023-04-19T13:28:24.651Z,25.00
2023-04-19T13:30:52.352Z,25.56
2023-04-19T13:33:20.041Z,25.34
2023-04-19T13:35:47.192Z,25.12
2023-04-19T13:38:14.412Z,24.83
2023-04-19T13:40:41.465Z,24.62
2023-04-19T13:43:09.055Z,25.27
2023-04-19T13:45:36.205Z,24.95
2023-04-19T13:48:03.625Z,25.53
2023-04-19T13:50:30.862Z,25.03
2023-04-19T13:52:57.987Z,25.10
2023-04-19T13:55:25.083Z,24.90
2023-04-19T13:57:52.173Z,25.25
2023-04-19T14:00:19.960Z,24.76
2023-04-19T14:02:48.395Z,24.61
2023-04-19T14:05:17.313Z,25.28
2023-04-19T14:07:44.413Z,25.13
2023-04-19T14:10:11.639Z,24.88
2023-04-19T14:12:38.710Z,24.93
2023-04-19T14:15:06.297Z,25.51
2023-04-19T14:17:36.063Z,24.97
2023-04-19T14:20:06.907Z,24.77
2023-04-19T14:22:35.585Z,24.86
2023-04-19T14:25:04.154Z,24.79
2023-04-19T14:27:32.249Z,24.44
2023-04-19T14:30:00.795Z,24.79
2023-04-19T14:32:28.621Z,24.77
2023-04-19T14:34:56.377Z,24.98
2023-04-19T14:37:24.674Z,25.02
2023-04-19T14:39:52.255Z,25.06
2023-04-19T14:42:22.583Z,24.98
2023-04-19T14:44:51.964Z,24.82
2023-04-19T14:47:19.545Z,24.63
2023-04-19T14:49:46.742Z,24.52
2023-04-19T14:52:14.096Z,24.46
2023-04-19T14:54:41.936Z,24.56
2023-04-19T14:57:09.633Z,25.08
2023-04-19T14:59:38.219Z,24.76
2023-04-19T15:02:05.976Z,25.22
2023-04-19T15:04:40.724Z,25.44
2023-04-19T15:07:08.512Z,25.38
2023-04-19T15:09:37.089Z,25.37
2023-04-19T15:12:04.405Z,25.24
2023-04-19T15:14:31.529Z,25.07
2023-04-19T15:16:58.665Z,25.48
2023-04-19T15:19:25.752Z,25.09
2023-04-19T15:21:52.841Z,24.71
2023-04-19T15:24:19.995Z,24.75
2023-04-19T15:26:47.185Z,24.99
2023-04-19T15:29:14.828Z,24.94
2023-04-19T15:31:42.500Z,24.48
2023-04-19T15:34:09.682Z,24.77
2023-04-19T15:36:36.968Z,25.13
2023-04-19T15:39:04.456Z,25.00
2023-04-19T15:41:31.712Z,24.78
2023-04-19T15:43:58.884Z,24.85
2023-04-19T15:46:26.034Z,24.76
2023-04-19T15:48:53.261Z,25.05
2023-04-19T15:51:20.363Z,25.37
2023-04-19T15:53:47.589Z,25.11
2023-04-19T15:56:14.639Z,24.91
2023-04-19T15:58:42.314Z,24.92
2023-04-19T16:01:13.282Z,25.16
2023-04-19T16:03:41.498Z,25.18
2023-04-19T16:06:09.730Z,24.70
2023-04-19T16:08:36.926Z,24.97
2023-04-19T16:11:06.082Z,24.93
2023-04-19T16:13:33.308Z,24.75
2023-04-19T16:16:01.532Z,24.61
2023-04-19T16:18:29.110Z,24.82
2023-04-19T16:20:56.319Z,24.60
2023-04-19T16:23:24.517Z,24.29
2023-04-19T16:25:51.748Z,24.93
2023-04-19T16:28:19.911Z,25.08
2023-04-19T16:30:47.676Z,24.92
2023-04-19T16:33:15.961Z,24.79
2023-04-19T16:35:43.317Z,25.27
2023-04-19T16:38:10.446Z,24.88
2023-04-19T16:40:37.721Z,25.39
2023-04-19T16:43:06.455Z,25.11
2023-04-19T16:45:33.997Z,25.34
2023-04-19T16:48:19.838Z,25.04
2023-04-19T16:50:46.994Z,25.87
2023-04-19T16:53:14.329Z,25.21
2023-04-19T16:55:41.614Z,25.91
2023-04-19T16:58:08.769Z,25.36
2023-04-19T17:00:35.934Z,25.54
2023-04-19T17:03:03.117Z,25.44
2023-04-19T17:05:30.441Z,25.51
2023-04-19T17:07:57.601Z,26.18
2023-04-19T17:10:26.388Z,25.76
2023-04-19T17:12:55.649Z,25.43
2023-04-19T17:15:23.181Z,25.81
2023-04-19T17:17:50.463Z,25.85
2023-04-19T17:20:17.610Z,26.59
2023-04-19T17:22:44.754Z,25.70
2023-04-19T17:25:11.796Z,25.74
2023-04-19T17:27:39.186Z,25.40
2023-04-19T17:30:07.497Z,26.00
2023-04-19T17:32:34.877Z,25.51
2023-04-19T17:35:02.108Z,26.16
2023-04-19T17:37:30.878Z,25.57
2023-04-19T17:39:58.106Z,25.62
2023-04-19T17:42:26.036Z,25.92
2023-04-19T17:44:53.323Z,25.45
2023-04-19T17:47:20.684Z,25.77
2023-04-19T17:49:47.777Z,25.46
2023-04-19T17:52:15.000Z,25.77
2023-04-19T17:54:42.188Z,26.15
2023-04-19T17:57:09.437Z,25.93
2023-04-19T17:59:37.748Z,26.21
2023-04-19T18:02:04.971Z,26.46
2023-04-19T18:04:32.414Z,25.97
2023-04-19T18:06:59.711Z,25.83
2023-04-19T18:09:26.905Z,25.91
2023-04-19T18:11:55.196Z,26.39
2023-04-19T18:14:22.308Z,26.63
2023-04-19T18:16:49.524Z,26.68
2023-04-19T18:19:17.307Z,26.58
2023-04-19T18:21:44.500Z,26.58
2023-04-19T18:24:11.614Z,26.63
2023-04-19T18:26:40.870Z,26.80
2023-04-19T18:29:08.385Z,26.81
2023-04-19T18:31:35.663Z,27.07
2023-04-19T18:34:03.060Z,26.81
2023-04-19T18:36:30.298Z,26.84
2023-04-19T18:38:57.747Z,27.10
2023-04-19T18:41:24.995Z,27.22
2023-04-19T18:44:18.521Z,27.04
2023-04-19T18:46:39.298Z,26.61
2023-04-19T18:49:06.770Z,26.83
2023-04-19T18:51:34.006Z,27.01
2023-04-19T18:54:01.045Z,26.84
2023-04-19T18:56:56.734Z,27.17
2023-04-19T18:59:16.081Z,27.13
2023-04-19T19:01:45.781Z,26.94
2023-04-19T19:04:33.998Z,27.07
2023-04-19T19:07:18.146Z,26.85
2023-04-19T19:09:56.268Z,26.90
2023-04-19T19:12:24.069Z,27.07
2023-04-19T19:14:51.605Z,26.81
2023-04-19T19:17:19.021Z,26.69
2023-04-19T19:19:46.298Z,26.87
2023-04-19T19:22:25.058Z,26.92
2023-04-19T19:24:54.427Z,27.20
2023-04-19T19:27:21.540Z,27.11
2023-04-19T19:29:48.772Z,26.64
2023-04-19T19:32:16.156Z,26.82
2023-04-19T19:34:54.650Z,27.11
2023-04-19T19:37:22.471Z,27.20
2023-04-19T19:39:49.737Z,27.28
2023-04-19T19:42:17.616Z,27.18
2023-04-19T19:44:44.961Z,27.41
2023-04-19T19:47:13.303Z,27.07
2023-04-19T19:49:57.714Z,27.39
2023-04-19T19:52:28.503Z,27.33
2023-04-19T19:54:56.040Z,27.45
2023-04-19T19:59:56.257Z,27.46
2023-04-19T20:02:25.108Z,27.75
2023-04-19T20:04:52.686Z,27.21
2023-04-19T20:09:51.126Z,27.49
2023-04-19T20:12:18.234Z,27.18
2023-04-19T20:14:45.254Z,27.85
2023-04-19T20:17:12.417Z,27.01
2023-04-19T20:19:39.885Z,27.70
2023-04-19T20:22:06.967Z,27.46
2023-04-19T20:24:34.259Z,27.49
2023-04-19T20:27:01.415Z,27.35
2023-04-19T20:29:28.496Z,27.69
2023-04-19T20:31:55.674Z,27.52
2023-04-19T20:34:22.789Z,27.59
2023-04-19T20:36:49.885Z,27.62
2023-04-19T20:39:19.296Z,27.55
2023-04-19T20:41:48.640Z,27.48
2023-04-19T20:44:17.801Z,27.68
2023-04-19T20:46:45.008Z,27.54
2023-04-19T20:49:12.222Z,28.07
2023-04-19T20:51:39.289Z,28.01
2023-04-19T20:54:06.535Z,28.02
2023-04-19T20:56:33.624Z,27.83
2023-04-19T20:59:00.845Z,28.38
2023-04-19T21:01:27.998Z,28.07
2023-04-19T21:03:55.375Z,27.99
2023-04-19T21:06:23.484Z,28.12
2023-04-19T21:08:53.201Z,28.02
2023-04-19T21:11:23.296Z,27.96
2023-04-19T21:13:50.358Z,28.12
2023-04-19T21:16:17.527Z,27.95
2023-04-19T21:18:44.642Z,27.78
2023-04-19T21:21:11.819Z,28.15
2023-04-19T21:23:39.160Z,29.49
2023-04-19T21:26:06.402Z,28.60
2023-04-19T21:28:36.552Z,28.22
2023-04-19T21:31:03.682Z,28.46
2023-04-19T21:33:30.823Z,28.46
2023-04-19T21:35:57.919Z,28.77
2023-04-19T21:38:24.998Z,29.36
2023-04-19T21:40:52.228Z,28.66
2023-04-19T21:43:19.393Z,28.58
2023-04-19T21:45:46.498Z,28.30
2023-04-19T21:48:13.595Z,28.24
2023-04-19T21:50:41.261Z,28.23
2023-04-19T21:53:08.375Z,28.24
2023-04-19T21:55:35.606Z,28.12
2023-04-19T21:58:02.725Z,28.93
2023-04-19T22:00:30.369Z,29.27
2023-04-19T22:02:57.673Z,28.34
2023-04-19T22:05:24.983Z,28.67
2023-04-19T22:07:54.528Z,29.61
2023-04-19T22:10:24.755Z,29.01
2023-04-19T22:12:58.755Z,29.05
2023-04-19T22:15:26.935Z,29.38
2023-04-19T22:17:54.219Z,29.06
2023-04-19T22:20:21.445Z,29.16
2023-04-19T22:22:48.611Z,29.31
2023-04-19T22:25:16.003Z,29.42
2023-04-19T22:27:43.633Z,29.49
2023-04-19T22:30:11.598Z,29.67
2023-04-19T22:32:38.748Z,29.15
2023-04-19T22:35:06.849Z,29.54
2023-04-19T22:37:33.980Z,30.56
2023-04-19T22:40:01.244Z,30.23
2023-04-19T22:42:30.645Z,29.80
2023-04-19T22:44:57.703Z,30.14
2023-04-19T22:47:24.876Z,30.62
2023-04-19T22:49:51.965Z,30.69
2023-04-19T22:52:19.145Z,30.16
2023-04-19T22:54:46.204Z,29.43
2023-04-19T22:57:13.368Z,30.32
2023-04-19T22:59:40.506Z,29.72
2023-04-19T23:02:07.781Z,30.13
2023-04-19T23:04:35.468Z,29.68
2023-04-19T23:07:03.997Z,30.28
2023-04-19T23:09:31.061Z,30.45
2023-04-19T23:12:01.160Z,30.29
2023-04-19T23:14:29.266Z,30.10
2023-04-19T23:16:57.360Z,30.58
2023-04-19T23:19:25.548Z,30.66
2023-04-19T23:21:52.637Z,30.84
2023-04-19T23:24:19.753Z,30.76
2023-04-19T23:26:46.834Z,31.19
2023-04-19T23:29:13.902Z,30.88
2023-04-19T23:31:41.032Z,30.49
2023-04-19T23:34:08.257Z,30.85
2023-04-19T23:36:35.401Z,30.79
2023-04-19T23:39:02.571Z,30.99
2023-04-19T23:41:29.659Z,31.22
2023-04-19T23:43:56.746Z,30.97
2023-04-19T23:46:23.817Z,30.91
2023-04-19T23:48:50.986Z,31.30
2023-04-19T23:51:18.036Z,31.34
2023-04-19T23:53:45.142Z,30.89
2023-04-19T23:56:12.264Z,31.06
2023-04-19T23:58:39.453Z,31.20
